首页
METAR-TAF:

METAR-TAF

机场 :

内塔吉·苏巴斯·钱德拉·鲍斯国际机场

加尔各答, 印度

纬度: 22-39N, 经度: 088-27E, 海拔: 4米

当前天气观测

该预报发布于10分钟前的09:00 UTC
风速7节,风向东转东南
温度 34°C
湿度 84%
气压 998 hPa
能見度: 3600
少量云层高于1800英尺
散云层高于2500英尺
少量云层高于3000英尺, 积雨云.
散云层高于10000英尺

METAR: VECC 120900Z 12007KT 3600 HZ FEW018 SCT025 FEW030CB SCT100 34/31 Q0998 NOSIG

时间: 14:40 (09:10 UTC)

预报

该预报发布于1小时和10分钟前的08:00 UTC
预报有效从12日的 09点(UTC)到 12日的 18点(UTC)
风速6节,风向东南
能見度: 3500
散云层高于1800英尺
多云层高于10000英尺
小雨, 霾
短暂存在
从 12日的 09点(UTC)到 12日的 13点(UTC)
能見度: 2000
散云层高于1500英尺
少量云层高于2500英尺, 积雨云.
阴天层高于9000英尺
雷暴, 雨

TAF: VECC 120800Z 1209/1218 13006KT 3500 -RA HZ SCT018 BKN100 TEMPO 1209/1213 2000 TSRA SCT015 FEW025CB OVC090

超过4000个机场的气象观测和天气预报(METAR&TAF报告)。

可查询的气象台以黄色和红色小点在地图上表示。

将鼠标移到小点上方,可查看气象台名称。

然后点击查看天气观测和预报。

如需切换地图:点击带黑十字的绿色按钮放大地图;点击带横线的绿色按钮缩小地图;或者点击绿色箭头查看邻近地区的地图。


METAR-TAF: